»·PEaware :: N9030C KBFL-KMHV

N9030C :: KBFL-KMHV

FLIGHT INFORMATION

Flight Status: Arrived
Operator: Privately registered:
United States
More flights under this callsign
Pilot: Craig B. (17555)
Aircraft: CESSNA 172 SKYHAWK
(C172)
More flights by this aircraft type
Origin: KBFL Meadows
United States
Destination: KMHV Mojave
United States
More flights between these airports :: More routes between these airports
Route: +
File this flight plan on PilotEdge
Remarks: CAT-6 RATING FLIGHT
Altitude:
(Current/Filed)
7,500ft
Speed:
(Current/Filed)
115kts
Departed: 30-Dec-17 11:18 AM
Arrived: 30-Dec-17 11:52 AM
Distance/Time
Traveled:
50nm/0:34
Distance/Time
To Go:
Arrived

Flight Plot

Page will automatically refresh every two minutes.


Map Options




Map Legend


Flown Route
Filed Route
Departure Airport
Arrival Airport
Navaid (VOR, NDB)
Fix

Horizontal Profiles

Position Reports

Time Latitude Longitude Heading Altitude Ground
Speed
30-Dec-17 11:11 35.435702 -119.052043 180 502ft 0kts
30-Dec-17 11:12 35.435702 -119.052043 180 502ft 0kts
30-Dec-17 11:13 35.435702 -119.052043 180 502ft 0kts
30-Dec-17 11:14 35.435702 -119.052043 180 502ft 0kts
30-Dec-17 11:15 35.435702 -119.052043 180 502ft 0kts
30-Dec-17 11:16 35.435702 -119.052043 180 502ft 0kts
30-Dec-17 11:17 35.435702 -119.052043 180 502ft 0kts
30-Dec-17 11:18 35.435702 -119.052043 180 502ft 0kts
30-Dec-17 11:19 35.435497 -119.052216 254 501ft 10kts
30-Dec-17 11:20 35.433482 -119.053525 136 493ft 20kts
30-Dec-17 11:21 35.428125 -119.047086 135 485ft 30kts
30-Dec-17 11:22 35.425307 -119.044369 266 479ft 0kts
30-Dec-17 11:23 35.425307 -119.044368 266 479ft 0kts
30-Dec-17 11:24 35.431275 -119.053102 311 597ft 83kts
30-Dec-17 11:25 35.449571 -119.074657 317 1268ft 100kts
30-Dec-17 11:26 35.467328 -119.060804 114 1840ft 117kts
30-Dec-17 11:27 35.442403 -119.037262 142 2435ft 111kts
30-Dec-17 11:28 35.425339 -119.007582 116 2999ft 107kts
30-Dec-17 11:29 35.411732 -118.974632 116 3500ft 108kts
30-Dec-17 11:30 35.398132 -118.941698 116 3999ft 108kts
30-Dec-17 11:31 35.384549 -118.908791 116 4500ft 108kts
30-Dec-17 11:32 35.370993 -118.875936 116 5001ft 107kts
30-Dec-17 11:33 35.357538 -118.843313 116 5501ft 107kts
30-Dec-17 11:34 35.343927 -118.810293 116 6004ft 110kts
30-Dec-17 11:35 35.330215 -118.777301 116 6504ft 105kts
30-Dec-17 11:36 35.317427 -118.746686 116 6993ft 100kts
30-Dec-17 11:37 35.304428 -118.715536 116 7312ft 113kts
30-Dec-17 11:38 35.289888 -118.680765 116 7501ft 114kts
30-Dec-17 11:39 35.275017 -118.645226 116 7503ft 118kts
30-Dec-17 11:40 35.259235 -118.607526 116 7284ft 126kts
30-Dec-17 11:41 35.243903 -118.570959 118 7283ft 119kts
30-Dec-17 11:42 35.226616 -118.535629 120 7113ft 127kts
30-Dec-17 11:43 35.208531 -118.499010 120 6721ft 123kts
30-Dec-17 11:44 35.184612 -118.469813 137 6319ft 121kts
30-Dec-17 11:45 35.159661 -118.442452 137 5918ft 120kts
30-Dec-17 11:46 35.136241 -118.412919 132 5518ft 122kts
30-Dec-17 11:47 35.114447 -118.382092 127 5411ft 111kts
30-Dec-17 11:48 35.095289 -118.352795 127 5473ft 114kts
30-Dec-17 11:49 35.075995 -118.322673 128 5473ft 115kts
30-Dec-17 11:50 35.069421 -118.284572 87 5306ft 125kts
30-Dec-17 11:51 35.070979 -118.247516 87 4899ft 101kts
30-Dec-17 11:52 35.072469 -118.212329 87 4500ft 105kts
30-Dec-17 11:53 35.073988 -118.176480 87 4099ft 106kts
30-Dec-17 11:54 35.075495 -118.140913 87 3773ft 95kts
30-Dec-17 11:55 35.074040 -118.114323 115 3772ft 73kts
30-Dec-17 11:56 35.061115 -118.122718 249 3424ft 71kts
30-Dec-17 11:57 35.059207 -118.145330 271 2740ft 44kts
30-Dec-17 11:58 35.058200 -118.149060 229 2746ft 0kts
30-Dec-17 11:59 35.057516 -118.149192 173 2745ft 18kts
30-Dec-17 12:00 35.056363 -118.150524 90 2745ft 0kts
30-Dec-17 12:01 35.056363 -118.150524 90 2745ft 0kts
30-Dec-17 12:02 35.056363 -118.150524 90 2745ft 0kts
30-Dec-17 12:03 35.056363 -118.150524 90 2745ft 0kts

Navigation Log

Ident Type
1. KBFL Airport
2. KMHV Airport